Time;durP1;ratioP1;P1;durP2;ratioP2;P2;SDS_P1;SDS_P2;PMS_P1;PMS_P2;Temp;Humidity;BMP_temperature;BMP_pressure;BME280_temperature;BME280_humidity;BME280_pressure;Samples;Min_cycle;Max_cycle;Signal;HPM_P1;HPM_P2
2021/03/18 00:01:14;;;;;;;;;;;;;;;6.16;56.27;101956.22;5001601;28;8556;-77
2021/03/18 00:03:40;;;;;;;;;;;;;;;6.13;56.26;101954.34;5017063;28;8078;-76
2021/03/18 00:06:06;;;;;;;;;;;;;;;6.08;56.61;101941.19;5003431;28;7206;-76
2021/03/18 00:08:32;;;;;;;;;;;;;;;6.06;56.24;101949.63;4981110;28;7469;-77
2021/03/18 00:10:58;;;;;;;;;;;;;;;6.03;56.12;101934.88;4997542;28;7482;-78
2021/03/18 00:13:24;;;;;;;;;;;;;;;5.99;56.57;101932.88;4985728;28;6991;-76
2021/03/18 00:15:50;;;;;;;;;;;;;;;5.96;56.69;101922.38;5012743;28;7174;-76
2021/03/18 00:18:16;;;;;;;;;;;;;;;5.94;56.36;101917.94;4996238;28;6798;-76
2021/03/18 00:20:42;;;;;;;;;;;;;;;5.90;56.57;101921.13;4989739;28;8514;-76
2021/03/18 00:23:07;;;;;;;;;;;;;;;5.88;56.35;101925.28;5012763;28;7107;-76
2021/03/18 00:25:33;;;;;;;;;;;;;;;5.85;56.65;101925.09;4996789;28;7222;-76
2021/03/18 00:27:58;;;;;;;;;;;;;;;5.83;56.56;101934.44;5006827;28;7253;-77
2021/03/18 00:30:24;;;;;;;;;;;;;;;5.78;57.02;101927.28;5000214;28;7233;-76
2021/03/18 00:32:50;;;;;;;;;;;;;;;5.75;56.87;101932.25;4982156;28;7323;-76
2021/03/18 00:35:16;;;;;;;;;;;;;;;5.73;56.71;101930.38;4998478;28;7768;-76
2021/03/18 00:37:42;;;;;;;;;;;;;;;5.70;56.67;101930.19;4988687;28;8408;-76
2021/03/18 00:40:13;;;;;;;;;;;;;;;5.67;57.33;101935.16;5009083;28;7066;-78
2021/03/18 00:42:53;;;;;;;;;;;;;;;5.65;57.20;101935.06;5000339;28;7797;-77
2021/03/18 00:45:19;;;;;;;;;;;;;;;5.62;56.89;101932.31;4993376;28;7599;-76
2021/03/18 00:47:45;;;;;;;;;;;;;;;5.57;57.20;101931.09;5013562;28;7286;-77
2021/03/18 00:50:13;;;;;;;;;;;;;;;5.55;57.00;101936.97;4996909;28;7762;-76
2021/03/18 00:52:39;;;;;;;;;;;;;;;5.50;57.32;101929.84;5000219;28;7354;-77
2021/03/18 00:55:05;;;;;;;;;;;;;;;5.50;57.03;101928.97;5017545;28;7285;-77
2021/03/18 00:57:30;;;;;;;;;;;;;;;5.47;57.42;101933.94;5002022;28;7476;-77
2021/03/18 00:59:56;;;;;;;;;;;;;;;5.44;57.36;101936.31;5001193;28;7254;-76
2021/03/18 01:02:21;;;;;;;;;;;;;;;5.39;57.39;101946.31;5016661;28;6809;-77
2021/03/18 01:04:47;;;;;;;;;;;;;;;5.37;57.25;101941.84;5015405;28;6792;-77
2021/03/18 01:07:12;;;;;;;;;;;;;;;5.35;57.68;101946.03;5014230;28;8045;-76
2021/03/18 01:09:38;;;;;;;;;;;;;;;5.31;57.66;101941.47;4990877;28;8494;-76
2021/03/18 01:12:04;;;;;;;;;;;;;;;5.30;57.39;101943.16;5012181;28;7303;-77
2021/03/18 01:14:29;;;;;;;;;;;;;;;5.27;57.88;101939.50;5015644;28;6813;-77
2021/03/18 01:16:56;;;;;;;;;;;;;;;5.25;57.37;101942.00;4983348;28;7170;-75
2021/03/18 01:19:22;;;;;;;;;;;;;;;5.24;57.14;101945.38;5003558;28;7137;-76
2021/03/18 01:21:49;;;;;;;;;;;;;;;5.21;57.36;101960.63;5002511;28;7318;-75
2021/03/18 01:24:15;;;;;;;;;;;;;;;5.18;57.35;101965.56;5001031;28;8577;-76
2021/03/18 01:26:42;;;;;;;;;;;;;;;5.16;57.48;101964.56;4995929;28;7467;-76
2021/03/18 01:29:08;;;;;;;;;;;;;;;5.12;57.87;101971.22;5000711;28;7413;-76
2021/03/18 01:31:34;;;;;;;;;;;;;;;5.10;57.63;101971.91;5000728;28;8830;-76
2021/03/18 01:33:59;;;;;;;;;;;;;;;5.08;57.94;101974.38;5016051;28;7007;-76
2021/03/18 01:36:25;;;;;;;;;;;;;;;5.05;57.60;101971.63;5001686;28;6871;-77
2021/03/18 01:38:51;;;;;;;;;;;;;;;5.04;57.89;101964.69;4985663;28;11170;-77
2021/03/18 01:41:16;;;;;;;;;;;;;;;5.01;57.78;101961.03;5006055;28;6999;-77
2021/03/18 01:43:42;;;;;;;;;;;;;;;4.99;58.04;101960.91;5002301;28;7003;-76
2021/03/18 01:46:08;;;;;;;;;;;;;;;4.96;57.77;101952.09;5014227;28;6971;-76
2021/03/18 01:48:33;;;;;;;;;;;;;;;4.94;57.88;101951.09;5003840;28;6792;-76
2021/03/18 01:50:59;;;;;;;;;;;;;;;4.88;58.30;101949.91;4998525;28;6800;-76
2021/03/18 01:53:25;;;;;;;;;;;;;;;4.88;58.03;101941.31;5004422;28;7238;-77
2021/03/18 01:55:52;;;;;;;;;;;;;;;4.85;58.09;101951.41;4982253;28;6938;-76
2021/03/18 01:58:17;;;;;;;;;;;;;;;4.84;58.13;101954.78;5001893;28;7389;-77
2021/03/18 02:00:44;;;;;;;;;;;;;;;4.81;58.29;101947.75;4983631;28;7092;-76
2021/03/18 02:03:10;;;;;;;;;;;;;;;4.79;58.22;101954.44;5003185;28;6884;-77
2021/03/18 02:05:35;;;;;;;;;;;;;;;4.79;58.24;101948.41;4985326;28;7031;-76
2021/03/18 02:08:01;;;;;;;;;;;;;;;4.76;58.70;101951.69;5014561;28;6783;-76
2021/03/18 02:10:31;;;;;;;;;;;;;;;4.74;58.15;101944.66;5018364;28;6851;-76
2021/03/18 02:12:57;;;;;;;;;;;;;;;4.74;58.32;101942.09;5015171;28;7270;-76
2021/03/18 02:15:25;;;;;;;;;;;;;;;4.71;58.47;101940.19;5007839;28;7999;-76
2021/03/18 02:17:54;;;;;;;;;;;;;;;4.71;58.59;101937.63;4998130;28;6865;-77
2021/03/18 02:21:01;;;;;;;;;;;;;;;4.70;58.33;101933.28;5011873;28;7527;-76
2021/03/18 02:23:44;;;;;;;;;;;;;;;4.67;59.01;101933.09;4979422;28;11303;-77
2021/03/18 02:26:16;;;;;;;;;;;;;;;4.67;58.68;101927.03;5014781;28;11130;-77
2021/03/18 02:29:09;;;;;;;;;;;;;;;4.62;58.52;101913.88;5017139;28;7260;-77
2021/03/18 02:31:46;;;;;;;;;;;;;;;4.63;58.52;101915.66;5018970;28;11151;-76
2021/03/18 02:34:21;;;;;;;;;;;;;;;4.58;59.04;101912.75;5001663;28;7221;-77
2021/03/18 02:36:59;;;;;;;;;;;;;;;4.55;58.89;101906.53;4991229;28;7823;-76
2021/03/18 02:39:27;;;;;;;;;;;;;;;4.52;58.52;101912.38;4993785;28;11566;-76
2021/03/18 02:41:55;;;;;;;;;;;;;;;4.55;58.65;101909.09;5017035;28;11095;-77
2021/03/18 02:44:23;;;;;;;;;;;;;;;4.54;59.16;101900.50;4985071;28;7047;-77
2021/03/18 02:46:52;;;;;;;;;;;;;;;4.52;58.56;101903.75;4997174;28;6819;-76
2021/03/18 02:49:18;;;;;;;;;;;;;;;4.49;58.79;101914.75;4987615;28;6829;-76
2021/03/18 02:51:43;;;;;;;;;;;;;;;4.49;58.53;101907.03;4997393;28;7056;-77
2021/03/18 02:54:10;;;;;;;;;;;;;;;4.49;59.19;101903.56;5001885;28;7118;-77
2021/03/18 02:56:40;;;;;;;;;;;;;;;4.48;58.85;101905.25;4965783;28;7250;-76
2021/03/18 02:59:06;;;;;;;;;;;;;;;4.43;59.09;101896.34;4997731;28;7004;-76
2021/03/18 03:01:31;;;;;;;;;;;;;;;4.42;59.27;101896.25;5001104;28;7379;-76
2021/03/18 03:03:57;;;;;;;;;;;;;;;4.41;59.43;101899.63;4992516;28;7692;-75
2021/03/18 03:06:23;;;;;;;;;;;;;;;4.41;59.01;101897.94;5002484;28;7218;-77
2021/03/18 03:08:48;;;;;;;;;;;;;;;4.38;59.11;101894.25;4997406;28;7107;-76
2021/03/18 03:11:14;;;;;;;;;;;;;;;4.35;58.82;101887.22;4989440;28;7193;-77
2021/03/18 03:13:41;;;;;;;;;;;;;;;4.35;59.36;101887.22;4984264;28;7425;-76
2021/03/18 03:16:09;;;;;;;;;;;;;;;4.35;59.59;101888.91;5005106;28;7010;-76
2021/03/18 03:18:35;;;;;;;;;;;;;;;4.31;59.41;101890.38;4988035;28;6983;-76
2021/03/18 03:21:00;;;;;;;;;;;;;;;4.31;59.32;101890.38;4985658;28;7254;-77
2021/03/18 03:23:26;;;;;;;;;;;;;;;4.28;59.56;101893.63;5003180;28;7083;-76
2021/03/18 03:25:51;;;;;;;;;;;;;;;4.28;59.40;101890.19;5000525;28;7039;-76
2021/03/18 03:28:17;;;;;;;;;;;;;;;4.25;58.91;101885.72;4985250;28;7387;-76
2021/03/18 03:30:43;;;;;;;;;;;;;;;4.21;59.93;101894.03;4991485;28;6813;-76
2021/03/18 03:33:09;;;;;;;;;;;;;;;4.24;59.61;101901.06;4981337;28;7264;-77
2021/03/18 03:35:34;;;;;;;;;;;;;;;4.22;59.12;101905.22;4997148;28;8505;-76
2021/03/18 03:38:00;;;;;;;;;;;;;;;4.21;59.25;101893.16;5013043;28;7256;-76
2021/03/18 03:40:25;;;;;;;;;;;;;;;4.20;59.86;101894.78;5016056;28;7039;-77
2021/03/18 03:42:51;;;;;;;;;;;;;;;4.19;59.17;101895.59;5004743;28;7238;-76
2021/03/18 03:45:16;;;;;;;;;;;;;;;4.17;59.46;101891.13;5003557;28;7845;-76
2021/03/18 03:47:42;;;;;;;;;;;;;;;4.15;59.63;101891.03;4991208;28;7278;-76
2021/03/18 03:50:10;;;;;;;;;;;;;;;4.14;58.95;101896.97;5001340;28;7661;-76
2021/03/18 03:52:36;;;;;;;;;;;;;;;4.13;59.87;101902.91;4983623;28;7241;-76
2021/03/18 03:55:25;;;;;;;;;;;;;;;4.11;59.74;101906.16;4999709;28;8550;-76
2021/03/18 03:58:21;;;;;;;;;;;;;;;4.09;59.23;101903.47;5012549;28;7898;-77
2021/03/18 04:00:47;;;;;;;;;;;;;;;4.08;60.07;101899.13;4985158;28;12744;-75
2021/03/18 04:03:13;;;;;;;;;;;;;;;4.08;59.98;101895.66;4983702;28;7303;-76
2021/03/18 04:05:41;;;;;;;;;;;;;;;4.06;60.20;101890.44;5001553;28;7085;-76
2021/03/18 04:08:07;;;;;;;;;;;;;;;4.05;59.71;101890.31;4995005;28;7056;-76
2021/03/18 04:10:33;;;;;;;;;;;;;;;4.05;59.81;101892.91;4985393;28;7499;-76
2021/03/18 04:12:59;;;;;;;;;;;;;;;4.05;60.13;101895.47;4983430;28;7715;-75
2021/03/18 04:15:24;;;;;;;;;;;;;;;4.03;60.21;101897.94;4997811;28;7185;-77
2021/03/18 04:17:52;;;;;;;;;;;;;;;4.02;60.24;101897.84;4983864;28;6791;-76
2021/03/18 04:20:18;;;;;;;;;;;;;;;4.02;59.84;101900.41;4992803;28;7216;-76
2021/03/18 04:22:47;;;;;;;;;;;;;;;4.03;59.69;101907.31;4988712;28;7098;-77
2021/03/18 04:25:13;;;;;;;;;;;;;;;4.04;59.69;101909.09;5013776;28;7206;-76
2021/03/18 04:27:39;;;;;;;;;;;;;;;4.03;60.34;101908.22;4991232;28;7323;-76
2021/03/18 04:30:06;;;;;;;;;;;;;;;4.02;59.89;101897.84;4983180;28;7247;-76
2021/03/18 04:32:32;;;;;;;;;;;;;;;4.03;59.76;101894.47;5006770;28;7521;-77
2021/03/18 04:34:57;;;;;;;;;;;;;;;4.01;60.43;101891.81;4996210;28;7222;-76
2021/03/18 04:37:23;;;;;;;;;;;;;;;4.00;60.07;101889.09;4985882;28;7567;-76
2021/03/18 04:39:48;;;;;;;;;;;;;;;3.98;60.16;101889.88;4984103;28;7359;-76
2021/03/18 04:42:14;;;;;;;;;;;;;;;3.98;59.63;101895.03;5014029;28;7198;-77
2021/03/18 04:44:40;;;;;;;;;;;;;;;3.98;59.74;101897.59;4998975;28;7266;-76
2021/03/18 04:47:06;;;;;;;;;;;;;;;3.97;60.20;101903.53;4998194;28;6905;-75
2021/03/18 04:49:32;;;;;;;;;;;;;;;3.97;59.71;101905.22;4984040;28;6783;-77
2021/03/18 04:51:57;;;;;;;;;;;;;;;3.95;59.83;101909.34;4993938;28;7444;-76
2021/03/18 04:54:23;;;;;;;;;;;;;;;3.96;60.04;101901.75;4986141;28;7343;-76
2021/03/18 04:56:49;;;;;;;;;;;;;;;3.96;60.41;101906.00;5003929;28;6799;-76
2021/03/18 04:59:15;;;;;;;;;;;;;;;3.95;59.79;101910.25;5000533;28;8361;-75
2021/03/18 05:01:48;;;;;;;;;;;;;;;3.94;60.32;101905.91;4989815;28;6946;-76
2021/03/18 05:04:15;;;;;;;;;;;;;;;3.94;60.23;101905.00;4989700;28;6993;-76
2021/03/18 05:06:43;;;;;;;;;;;;;;;3.94;60.62;101900.75;5012816;28;7015;-76
2021/03/18 05:09:08;;;;;;;;;;;;;;;3.94;60.26;101903.31;4985774;28;8274;-76
2021/03/18 05:11:35;;;;;;;;;;;;;;;3.94;60.54;101900.75;5003295;28;7140;-76
2021/03/18 05:14:01;;;;;;;;;;;;;;;3.93;60.63;101896.41;5012659;28;6839;-74
2021/03/18 05:16:26;;;;;;;;;;;;;;;3.94;60.45;101892.16;5005775;28;7417;-76
2021/03/18 05:18:52;;;;;;;;;;;;;;;3.96;60.42;101891.47;4994939;28;7386;-75
2021/03/18 05:21:17;;;;;;;;;;;;;;;3.96;60.51;101888.91;4982976;28;8425;-74
2021/03/18 05:23:43;;;;;;;;;;;;;;;3.98;60.54;101878.72;5014072;28;7091;-77
2021/03/18 05:26:09;;;;;;;;;;;;;;;4.05;60.03;101886.06;4998605;28;7322;-74
2021/03/18 05:28:34;;;;;;;;;;;;;;;4.08;60.69;101878.56;5002936;28;7916;-74
2021/03/18 05:31:01;;;;;;;;;;;;;;;4.09;60.36;101877.78;4992316;28;7004;-75
2021/03/18 05:33:27;;;;;;;;;;;;;;;4.13;60.24;101876.28;4994104;28;6871;-74
2021/03/18 05:35:52;;;;;;;;;;;;;;;4.16;59.92;101868.78;4997691;28;7477;-74
2021/03/18 05:38:18;;;;;;;;;;;;;;;4.19;60.05;101886.97;5015512;28;7391;-72
2021/03/18 05:40:45;;;;;;;;;;;;;;;4.23;60.14;101878.72;4999177;28;6811;-73
2021/03/18 05:43:11;;;;;;;;;;;;;;;4.26;59.67;101876.34;5012184;28;7917;-73
2021/03/18 05:45:36;;;;;;;;;;;;;;;4.29;59.66;101876.53;4996196;28;7697;-73
2021/03/18 05:48:02;;;;;;;;;;;;;;;4.31;60.27;101880.09;5014766;28;7617;-73
2021/03/18 05:50:28;;;;;;;;;;;;;;;4.36;59.95;101883.84;5016447;28;6847;-73
2021/03/18 05:52:53;;;;;;;;;;;;;;;4.37;60.02;101877.91;4983536;28;8521;-74
2021/03/18 05:55:21;;;;;;;;;;;;;;;4.40;59.91;101875.53;5000800;28;6798;-75
2021/03/18 05:57:48;;;;;;;;;;;;;;;4.44;59.76;101871.53;5002534;28;7246;-74
2021/03/18 06:00:14;;;;;;;;;;;;;;;4.46;59.38;101881.13;4991016;28;7861;-74
2021/03/18 06:02:39;;;;;;;;;;;;;;;4.49;59.94;101875.28;5010102;28;6979;-74
2021/03/18 06:05:07;;;;;;;;;;;;;;;4.55;59.85;101876.56;5001729;28;7599;-74
2021/03/18 06:07:35;;;;;;;;;;;;;;;4.58;59.43;101876.75;5000579;28;7293;-73
2021/03/18 06:10:00;;;;;;;;;;;;;;;4.62;59.70;101872.72;4999741;28;11260;-74
2021/03/18 06:12:26;;;;;;;;;;;;;;;4.69;59.57;101874.00;5003336;28;6873;-74
2021/03/18 06:14:51;;;;;;;;;;;;;;;4.76;58.82;101871.91;4983695;28;6871;-74
2021/03/18 06:17:17;;;;;;;;;;;;;;;4.82;58.66;101862.03;4985466;28;7087;-74
2021/03/18 06:19:43;;;;;;;;;;;;;;;4.91;59.20;101865.97;4999228;28;6812;-74
2021/03/18 06:22:08;;;;;;;;;;;;;;;4.96;59.26;101870.59;5005162;28;7426;-74
2021/03/18 06:24:35;;;;;;;;;;;;;;;5.02;58.74;101871.00;5001838;28;7751;-74
2021/03/18 06:27:00;;;;;;;;;;;;;;;5.10;58.54;101874.94;5001977;28;7456;-74
2021/03/18 06:29:36;;;;;;;;;;;;;;;5.16;58.15;101874.44;4982660;28;6990;-73
2021/03/18 06:32:14;;;;;;;;;;;;;;;5.22;58.44;101869.69;5002058;28;11093;-73
2021/03/18 06:34:50;;;;;;;;;;;;;;;5.37;59.31;101874.88;5014972;28;10968;-74
2021/03/18 06:37:41;;;;;;;;;;;;;;;5.39;59.66;101874.19;5006640;28;6961;-74
2021/03/18 06:40:13;;;;;;;;;;;;;;;5.44;59.37;101871.91;4988579;28;12989;-74
2021/03/18 06:42:40;;;;;;;;;;;;;;;5.47;59.36;101880.72;5019311;28;6807;-74
2021/03/18 06:45:13;;;;;;;;;;;;;;;5.55;59.19;101869.97;5012231;28;7021;-75
2021/03/18 06:47:52;;;;;;;;;;;;;;;5.58;58.87;101855.59;5006802;28;7206;-74
2021/03/18 06:50:22;;;;;;;;;;;;;;;5.66;58.86;101864.69;5017685;28;7202;-74
2021/03/18 06:52:48;;;;;;;;;;;;;;;5.70;58.57;101858.91;5002105;28;8638;-74
2021/03/18 06:55:26;;;;;;;;;;;;;;;5.75;58.70;101864.34;4997620;28;7141;-74
2021/03/18 06:58:17;;;;;;;;;;;;;;;5.85;58.25;101865.81;5001543;28;6870;-74
2021/03/18 07:01:06;;;;;;;;;;;;;;;5.92;58.20;101867.97;5010954;28;12437;-74
2021/03/18 07:03:33;;;;;;;;;;;;;;;5.93;58.12;101865.47;5005307;28;11232;-74
2021/03/18 07:05:59;;;;;;;;;;;;;;;6.02;58.29;101860.00;5001798;28;6802;-74
2021/03/18 07:08:30;;;;;;;;;;;;;;;6.11;57.54;101855.38;4999920;28;7698;-74
2021/03/18 07:10:56;;;;;;;;;;;;;;;6.20;57.86;101855.91;4984716;28;7173;-74
2021/03/18 07:13:25;;;;;;;;;;;;;;;6.32;57.46;101851.47;5006722;28;7391;-74
2021/03/18 07:15:51;;;;;;;;;;;;;;;6.47;56.87;101855.72;5016232;28;6791;-75
2021/03/18 07:18:17;;;;;;;;;;;;;;;6.60;57.18;101855.59;4987084;28;7314;-74
2021/03/18 07:21:11;;;;;;;;;;;;;;;6.71;56.63;101850.25;4990315;28;7319;-74
2021/03/18 07:23:47;;;;;;;;;;;;;;;6.87;56.32;101852.00;5006943;28;11217;-74
2021/03/18 07:26:20;;;;;;;;;;;;;;;6.96;56.16;101847.34;4997872;28;7229;-74
2021/03/18 07:28:47;;;;;;;;;;;;;;;7.01;55.74;101842.47;4996432;28;6816;-74
2021/03/18 07:31:13;;;;;;;;;;;;;;;7.08;56.07;101841.09;4990829;28;8203;-74
2021/03/18 07:33:39;;;;;;;;;;;;;;;7.13;55.82;101845.69;4989399;28;7242;-74
2021/03/18 07:36:04;;;;;;;;;;;;;;;7.20;55.90;101849.47;4995105;28;6983;-73
2021/03/18 07:38:30;;;;;;;;;;;;;;;7.31;55.51;101840.63;5016930;28;7301;-74
2021/03/18 07:40:58;;;;;;;;;;;;;;;7.37;55.62;101832.31;4998656;28;6918;-74
2021/03/18 07:43:24;;;;;;;;;;;;;;;7.42;55.50;101830.88;4997582;28;7277;-74
2021/03/18 07:45:49;;;;;;;;;;;;;;;7.50;55.29;101835.63;5003602;28;6799;-74
2021/03/18 07:48:19;;;;;;;;;;;;;;;7.55;55.25;101830.69;4999076;28;7056;-74
2021/03/18 07:50:44;;;;;;;;;;;;;;;7.61;54.92;101826.75;5003965;28;6791;-73
2021/03/18 07:53:11;;;;;;;;;;;;;;;7.70;55.03;101828.03;4986288;28;7266;-75
2021/03/18 07:55:36;;;;;;;;;;;;;;;7.73;54.82;101830.78;5002970;28;7660;-74
2021/03/18 07:58:02;;;;;;;;;;;;;;;7.83;54.94;101835.63;4997519;28;6799;-75
2021/03/18 08:00:31;;;;;;;;;;;;;;;7.89;54.68;101835.94;4999981;28;6879;-75
2021/03/18 08:03:34;;;;;;;;;;;;;;;7.97;54.73;101833.72;4995818;28;8652;-74
2021/03/18 08:06:00;;;;;;;;;;;;;;;8.00;54.52;101839.94;4954498;28;11089;-74
2021/03/18 08:08:31;;;;;;;;;;;;;;;8.03;54.85;101836.66;4983786;28;6938;-74
2021/03/18 08:11:09;;;;;;;;;;;;;;;8.12;54.62;101837.09;5017228;28;7206;-74
2021/03/18 08:13:36;;;;;;;;;;;;;;;8.22;54.51;101835.06;5017058;28;11191;-74
2021/03/18 08:16:02;;;;;;;;;;;;;;;8.31;53.84;101836.31;5014232;28;7565;-74
2021/03/18 08:18:33;;;;;;;;;;;;;;;8.29;54.39;101833.66;5013795;28;7306;-74
2021/03/18 08:21:01;;;;;;;;;;;;;;;8.36;54.24;101829.69;5011460;28;7340;-74
2021/03/18 08:23:29;;;;;;;;;;;;;;;8.37;54.10;101834.94;4998949;28;7000;-76
2021/03/18 08:25:59;;;;;;;;;;;;;;;8.41;53.99;101835.97;5011432;28;6814;-74
2021/03/18 08:28:58;;;;;;;;;;;;;;;8.51;54.30;101836.53;5010798;28;7901;-74
2021/03/18 08:31:45;;;;;;;;;;;;;;;8.59;53.69;101839.47;5015399;28;12549;-74
2021/03/18 08:34:10;;;;;;;;;;;;;;;8.69;53.73;101846.00;5000210;28;11020;-74
2021/03/18 08:36:37;;;;;;;;;;;;;;;8.72;53.50;101838.38;5000352;28;7280;-74
2021/03/18 08:39:13;;;;;;;;;;;;;;;8.81;53.29;101838.81;5013468;28;7205;-75
2021/03/18 08:41:41;;;;;;;;;;;;;;;8.86;53.54;101842.53;4993876;28;11142;-74
2021/03/18 08:44:22;;;;;;;;;;;;;;;8.96;53.17;101847.31;5003363;28;7353;-74
2021/03/18 08:46:49;;;;;;;;;;;;;;;9.04;53.74;101843.38;5011069;28;11120;-74
2021/03/18 08:49:21;;;;;;;;;;;;;;;9.04;53.24;101840.78;5005673;28;7091;-74
2021/03/18 08:51:49;;;;;;;;;;;;;;;9.08;53.15;101844.41;5006209;28;7890;-74
2021/03/18 08:54:37;;;;;;;;;;;;;;;9.11;53.51;101847.13;5013747;28;6904;-74
2021/03/18 08:57:13;;;;;;;;;;;;;;;9.14;53.11;101840.38;5017403;28;7241;-74
2021/03/18 08:59:45;;;;;;;;;;;;;;;9.20;53.60;101839.78;5016541;28;11076;-75
2021/03/18 09:02:15;;;;;;;;;;;;;;;9.23;53.04;101841.66;4989869;28;7325;-75
2021/03/18 09:04:43;;;;;;;;;;;;;;;9.25;53.34;101840.91;5001914;28;6823;-75
2021/03/18 09:07:10;;;;;;;;;;;;;;;9.35;52.86;101837.00;5012672;28;7315;-75
2021/03/18 09:09:36;;;;;;;;;;;;;;;9.48;52.78;101841.06;5019541;28;7202;-74
2021/03/18 09:12:02;;;;;;;;;;;;;;;9.64;52.76;101848.69;5017726;28;7130;-74
2021/03/18 09:14:27;;;;;;;;;;;;;;;9.76;52.34;101846.63;5017191;28;6783;-75
2021/03/18 09:17:10;;;;;;;;;;;;;;;9.86;51.89;101848.81;4984683;28;7103;-74
2021/03/18 09:19:36;;;;;;;;;;;;;;;10.02;51.71;101851.25;5005177;28;11475;-75
2021/03/18 09:22:02;;;;;;;;;;;;;;;10.17;51.05;101855.31;4985539;28;6807;-75
2021/03/18 09:24:37;;;;;;;;;;;;;;;10.32;51.35;101840.41;4999928;28;7230;-74
2021/03/18 09:27:06;;;;;;;;;;;;;;;10.49;50.97;101843.72;5013920;28;7257;-75
2021/03/18 09:29:31;;;;;;;;;;;;;;;10.61;50.24;101841.59;5021482;28;7425;-74
2021/03/18 09:32:04;;;;;;;;;;;;;;;10.66;50.28;101838.38;5016661;28;7182;-74
2021/03/18 09:34:36;;;;;;;;;;;;;;;10.70;50.52;101833.31;5016145;28;6807;-74
2021/03/18 09:37:02;;;;;;;;;;;;;;;10.79;50.35;101831.94;5010279;28;6951;-74
2021/03/18 09:39:28;;;;;;;;;;;;;;;10.80;50.17;101825.03;4993044;28;7433;-74
2021/03/18 09:41:59;;;;;;;;;;;;;;;10.81;49.91;101832.91;4961535;28;8701;-74
2021/03/18 09:44:29;;;;;;;;;;;;;;;10.81;50.25;101827.72;4999830;28;7435;-74
2021/03/18 09:47:02;;;;;;;;;;;;;;;10.89;50.38;101825.41;4985426;28;7466;-74
2021/03/18 09:49:34;;;;;;;;;;;;;;;11.00;49.70;101821.50;5014525;28;7146;-74
2021/03/18 09:52:05;;;;;;;;;;;;;;;11.07;49.49;101820.94;5014157;28;7317;-74
2021/03/18 09:54:31;;;;;;;;;;;;;;;11.18;49.80;101827.41;5005045;28;7106;-75
2021/03/18 09:57:00;;;;;;;;;;;;;;;11.22;49.36;101815.44;4983362;28;6844;-75
2021/03/18 09:59:26;;;;;;;;;;;;;;;11.26;49.51;101817.31;4994786;28;7931;-75
2021/03/18 10:01:51;;;;;;;;;;;;;;;11.33;49.98;101821.00;4985329;28;8535;-75
2021/03/18 10:04:20;;;;;;;;;;;;;;;11.39;49.52;101823.84;5018612;28;7208;-75
2021/03/18 10:06:51;;;;;;;;;;;;;;;11.48;48.98;101813.78;4988830;28;7170;-75
2021/03/18 10:09:20;;;;;;;;;;;;;;;11.65;48.84;101817.88;4996178;28;7339;-75
2021/03/18 10:11:55;;;;;;;;;;;;;;;11.90;48.57;101822.25;5019229;28;6782;-75
2021/03/18 10:14:22;;;;;;;;;;;;;;;12.11;47.84;101807.38;4996483;28;7279;-76
2021/03/18 10:16:50;;;;;;;;;;;;;;;12.26;47.46;101809.63;5000098;28;7427;-75
2021/03/18 10:19:16;;;;;;;;;;;;;;;12.38;47.11;101811.72;4999267;28;8027;-75
2021/03/18 10:21:41;;;;;;;;;;;;;;;12.39;47.15;101806.56;4996946;28;7186;-75
2021/03/18 10:24:11;;;;;;;;;;;;;;;12.40;47.47;101804.84;4983895;28;12025;-75
2021/03/18 10:26:37;;;;;;;;;;;;;;;12.41;47.68;101809.22;5008519;28;11065;-75
2021/03/18 10:29:04;;;;;;;;;;;;;;;12.46;47.71;101797.25;5000292;28;6871;-75
2021/03/18 10:31:29;;;;;;;;;;;;;;;12.59;47.24;101793.28;4990696;28;7479;-75
2021/03/18 10:33:55;;;;;;;;;;;;;;;12.68;46.94;101804.03;4990455;28;7326;-75
2021/03/18 10:36:36;;;;;;;;;;;;;;;12.73;46.97;101795.50;5009161;28;7427;-75
2021/03/18 10:39:04;;;;;;;;;;;;;;;12.75;47.02;101790.34;5001784;28;6990;-75
2021/03/18 10:41:30;;;;;;;;;;;;;;;12.79;47.12;101779.16;5008965;28;6815;-75
2021/03/18 10:43:55;;;;;;;;;;;;;;;12.98;46.77;101781.47;4999204;28;6992;-75
2021/03/18 10:46:30;;;;;;;;;;;;;;;13.36;46.24;101777.41;5015796;28;7148;-75
2021/03/18 10:48:56;;;;;;;;;;;;;;;13.52;45.47;101776.13;4997747;28;7158;-75
2021/03/18 10:51:22;;;;;;;;;;;;;;;13.69;45.22;101780.06;4975570;28;6989;-75
2021/03/18 10:53:48;;;;;;;;;;;;;;;13.91;44.75;101772.81;4986688;28;8156;-75
2021/03/18 10:56:17;;;;;;;;;;;;;;;13.95;44.71;101769.41;4986388;28;7549;-75
2021/03/18 10:58:43;;;;;;;;;;;;;;;14.03;44.70;101770.53;4992994;28;11207;-75
2021/03/18 11:01:10;;;;;;;;;;;;;;;14.15;44.58;101762.09;5003100;28;7301;-75
2021/03/18 11:03:37;;;;;;;;;;;;;;;14.06;45.14;101754.91;4997749;28;6815;-75
2021/03/18 11:06:18;;;;;;;;;;;;;;;14.11;45.17;101755.91;5014203;28;7293;-75
2021/03/18 11:08:45;;;;;;;;;;;;;;;14.45;44.27;101747.19;5002494;28;11306;-75
2021/03/18 11:11:24;;;;;;;;;;;;;;;14.74;43.48;101742.63;5001746;28;11309;-75
2021/03/18 11:13:50;;;;;;;;;;;;;;;14.89;43.49;101739.47;5011370;28;11145;-74
2021/03/18 11:16:22;;;;;;;;;;;;;;;14.98;42.91;101739.63;5013151;28;6803;-75
2021/03/18 11:18:49;;;;;;;;;;;;;;;15.14;43.10;101727.75;5011906;28;7294;-75
2021/03/18 11:21:25;;;;;;;;;;;;;;;15.32;42.39;101728.13;4999715;28;7068;-76
2021/03/18 11:23:52;;;;;;;;;;;;;;;15.58;42.52;101730.34;5012034;28;11008;-75
2021/03/18 11:26:24;;;;;;;;;;;;;;;15.80;42.08;101727.28;4995999;28;7405;-75
2021/03/18 11:28:53;;;;;;;;;;;;;;;16.25;41.15;101727.19;5002990;28;7531;-76
2021/03/18 11:31:19;;;;;;;;;;;;;;;16.45;40.43;101723.97;4995898;28;6978;-77
2021/03/18 11:33:44;;;;;;;;;;;;;;;16.35;40.88;101720.31;4996629;28;7545;-76
2021/03/18 11:36:10;;;;;;;;;;;;;;;16.39;40.75;101716.88;5002485;28;12826;-76
2021/03/18 11:38:35;;;;;;;;;;;;;;;16.66;39.85;101713.78;5013036;28;7362;-76
2021/03/18 11:41:01;;;;;;;;;;;;;;;17.04;39.44;101714.31;5014515;28;7075;-75
2021/03/18 11:43:27;;;;;;;;;;;;;;;17.44;38.69;101714.78;4997944;28;8474;-75
2021/03/18 11:45:54;;;;;;;;;;;;;;;17.33;38.82;101705.03;5016894;28;6794;-75
2021/03/18 11:48:19;;;;;;;;;;;;;;;17.25;39.21;101693.56;5001329;28;6803;-75
2021/03/18 11:50:45;;;;;;;;;;;;;;;17.26;39.04;101690.06;5017098;28;8651;-75
2021/03/18 11:53:10;;;;;;;;;;;;;;;17.33;38.89;101686.66;5017220;28;11040;-75
2021/03/18 11:55:37;;;;;;;;;;;;;;;17.47;38.42;101683.28;5010461;28;6824;-75
2021/03/18 11:58:02;;;;;;;;;;;;;;;17.77;38.04;101680.09;4997181;28;7124;-76
2021/03/18 12:00:29;;;;;;;;;;;;;;;18.12;37.08;101672.47;4989400;28;6834;-75
2021/03/18 12:02:55;;;;;;;;;;;;;;;18.39;36.80;101658.63;4984270;28;7071;-75
2021/03/18 12:05:21;;;;;;;;;;;;;;;18.76;36.16;101657.06;5004107;28;6923;-75
2021/03/18 12:07:46;;;;;;;;;;;;;;;19.08;35.26;101650.19;5010652;28;8834;-75
2021/03/18 12:10:12;;;;;;;;;;;;;;;19.17;35.21;101644.03;5012370;28;7214;-75
2021/03/18 12:12:38;;;;;;;;;;;;;;;18.97;35.97;101644.00;4984188;28;7270;-75
2021/03/18 12:15:05;;;;;;;;;;;;;;;18.68;36.36;101638.63;5013906;28;7191;-75
2021/03/18 12:17:31;;;;;;;;;;;;;;;18.50;36.49;101630.63;4984557;28;7023;-76
2021/03/18 12:19:57;;;;;;;;;;;;;;;18.48;36.27;101624.50;5014404;28;7190;-76
2021/03/18 12:22:22;;;;;;;;;;;;;;;18.74;35.79;101624.63;5013178;28;6798;-76
2021/03/18 12:24:48;;;;;;;;;;;;;;;18.89;35.50;101623.81;5013586;28;7672;-75
2021/03/18 12:27:13;;;;;;;;;;;;;;;19.17;35.31;101617.72;5012194;28;6992;-75
2021/03/18 12:29:39;;;;;;;;;;;;;;;19.25;34.73;101623.88;5014771;28;7387;-75
2021/03/18 12:32:04;;;;;;;;;;;;;;;19.07;35.47;101611.56;5011477;28;7352;-75
2021/03/18 12:34:30;;;;;;;;;;;;;;;19.05;34.83;101604.53;5016367;28;7051;-75
2021/03/18 12:36:56;;;;;;;;;;;;;;;19.39;34.99;101608.06;5013975;28;8606;-75
2021/03/18 12:39:22;;;;;;;;;;;;;;;19.61;34.29;101601.09;5011993;28;7274;-75
2021/03/18 12:41:47;;;;;;;;;;;;;;;19.42;35.06;101602.81;5000660;28;7160;-76
2021/03/18 12:44:13;;;;;;;;;;;;;;;19.19;35.00;101600.16;5002879;28;7057;-76
2021/03/18 12:46:38;;;;;;;;;;;;;;;19.39;34.97;101595.78;5019683;28;7983;-76
2021/03/18 12:49:04;;;;;;;;;;;;;;;19.78;33.91;101596.69;5018068;28;9811;-75
2021/03/18 12:51:30;;;;;;;;;;;;;;;20.10;33.29;101587.84;5021254;28;6921;-75
2021/03/18 12:53:56;;;;;;;;;;;;;;;20.38;33.55;101583.34;5000831;28;8317;-78
2021/03/18 12:56:22;;;;;;;;;;;;;;;20.43;33.35;101571.97;4998953;28;8497;-75
2021/03/18 12:58:47;;;;;;;;;;;;;;;20.27;33.63;101578.13;5018810;28;7063;-75